Time;durP1;ratioP1;P1;durP2;ratioP2;P2;SDS_P1;SDS_P2;PMS_P1;PMS_P2;Temp;Humidity;BMP_temperature;BMP_pressure;BME280_temperature;BME280_humidity;BME280_pressure;Samples;Min_cycle;Max_cycle;Signal;HPM_P1;HPM_P2
2022/04/23 00:02:12;;;;;;;12.43;6.82;;;9.60;99.90;;;;;;5136107;27;20079;-27
2022/04/23 00:04:39;;;;;;;13.10;7.50;;;9.60;99.90;;;;;;5134280;27;20069;-27
2022/04/23 00:07:07;;;;;;;18.75;7.50;;;9.50;99.90;;;;;;5117563;27;20062;-27
2022/04/23 00:09:33;;;;;;;16.17;8.90;;;9.50;99.90;;;;;;5136181;27;20082;-27
2022/04/23 00:11:59;;;;;;;11.48;7.20;;;9.50;99.90;;;;;;5117714;27;20518;-27
2022/04/23 00:14:26;;;;;;;14.43;7.47;;;9.40;99.90;;;;;;5134033;27;20123;-27
2022/04/23 00:16:53;;;;;;;12.98;7.30;;;9.30;1.00;;;;;;5136522;27;20368;-27
2022/04/23 00:19:19;;;;;;;11.63;6.95;;;9.30;1.00;;;;;;5135737;27;20051;-27
2022/04/23 00:21:45;;;;;;;14.40;8.02;;;9.30;1.00;;;;;;5135680;27;20050;-27
2022/04/23 00:24:11;;;;;;;11.23;7.22;;;9.30;1.00;;;;;;5133887;27;20042;-27
2022/04/23 00:26:37;;;;;;;10.68;8.10;;;9.20;1.00;;;;;;5135252;27;20039;-27
2022/04/23 00:29:02;;;;;;;14.23;7.72;;;9.20;1.00;;;;;;5136064;27;20043;-27
2022/04/23 00:31:28;;;;;;;11.93;7.70;;;9.20;1.00;;;;;;5135625;27;20055;-27
2022/04/23 00:33:54;;;;;;;14.95;8.15;;;9.20;1.00;;;;;;5135395;27;20047;-27
2022/04/23 00:36:23;;;;;;;13.50;7.80;;;9.10;1.00;;;;;;5102256;28;20450;-27
2022/04/23 00:38:53;;;;;;;13.18;7.95;;;9.00;1.00;;;;;;5115937;28;20093;-26
2022/04/23 00:44:05;;;;;;;12.13;7.57;;;8.90;1.00;;;;;;5115554;28;20047;-27
2022/04/23 00:46:31;;;;;;;16.58;9.25;;;8.90;1.00;;;;;;5114324;28;20499;-27
2022/04/23 00:49:00;;;;;;;16.83;8.40;;;8.90;1.00;;;;;;5115183;28;20126;-26
2022/04/23 00:51:28;;;;;;;16.17;9.73;;;8.80;1.00;;;;;;5114630;28;20043;-27
2022/04/23 00:53:54;;;;;;;13.07;8.57;;;8.80;50.60;;;;;;5114604;28;20048;-26
2022/04/23 00:56:22;;;;;;;18.65;9.18;;;8.70;1.00;;;;;;5114686;28;20388;-27
2022/04/23 00:58:49;;;;;;;15.48;9.63;;;8.70;1.00;;;;;;5114739;28;20489;-27
2022/04/23 01:01:15;;;;;;;13.63;9.55;;;8.60;64.10;;;;;;5115284;28;20075;-27
2022/04/23 01:03:42;;;;;;;17.25;9.70;;;8.80;49.70;;;;;;5096756;28;20054;-27
2022/04/23 01:06:10;;;;;;;13.10;9.95;;;8.60;99.90;;;;;;5114210;28;20370;-27
2022/04/23 01:08:37;;;;;;;15.30;9.82;;;8.60;90.50;;;;;;5133853;27;20115;-27
2022/04/23 01:11:03;;;;;;;16.85;9.70;;;8.60;99.90;;;;;;5134830;27;20099;-27
2022/04/23 01:13:29;;;;;;;15.52;10.07;;;8.60;99.90;;;;;;5134819;27;20051;-27
2022/04/23 01:16:07;;;;;;;16.58;9.57;;;8.70;99.90;;;;;;5134357;27;20047;-27
2022/04/23 01:18:34;;;;;;;19.38;9.95;;;8.70;99.90;;;;;;5133089;27;20099;-27
2022/04/23 01:21:02;;;;;;;14.10;9.38;;;8.60;99.90;;;;;;5134755;27;20050;-27
2022/04/23 01:23:29;;;;;;;15.35;10.25;;;8.70;99.90;;;;;;5116607;28;20047;-27
2022/04/23 01:25:55;;;;;;;17.75;10.68;;;8.50;99.90;;;;;;5134712;27;20492;-27
2022/04/23 01:28:23;;;;;;;24.73;9.82;;;8.70;99.90;;;;;;5132895;28;20051;-27
2022/04/23 01:30:53;;;;;;;15.60;10.95;;;8.60;99.90;;;;;;5134499;28;20054;-27
2022/04/23 01:33:19;;;;;;;18.80;11.38;;;8.70;99.90;;;;;;5116282;28;20054;-27
2022/04/23 01:35:45;;;;;;;21.15;11.80;;;8.70;99.90;;;;;;5134498;28;20039;-27
2022/04/23 01:38:11;;;;;;;21.38;11.15;;;8.70;99.90;;;;;;5130835;28;20046;-27
2022/04/23 01:40:37;;;;;;;15.90;10.57;;;8.70;99.90;;;;;;5117191;28;20495;-27
2022/04/23 01:43:04;;;;;;;16.80;11.68;;;8.70;99.90;;;;;;5118242;28;20101;-27
2022/04/23 01:45:30;;;;;;;19.67;12.00;;;8.60;99.90;;;;;;5119055;28;20381;-27
2022/04/23 01:47:56;;;;;;;16.33;11.27;;;8.70;99.90;;;;;;5099571;28;20062;-27
2022/04/23 01:50:22;;;;;;;13.25;10.73;;;8.60;99.90;;;;;;5134629;27;20047;-27
2022/04/23 01:52:48;;;;;;;16.30;11.90;;;8.60;99.90;;;;;;5138294;27;20456;-27
2022/04/23 01:55:13;;;;;;;20.05;12.23;;;8.60;99.90;;;;;;5138507;27;20082;-27
2022/04/23 01:57:39;;;;;;;15.75;10.57;;;8.70;99.90;;;;;;5119833;27;20053;-27
2022/04/23 02:00:11;;;;;;;17.42;13.13;;;8.70;99.90;;;;;;5126005;27;20054;-28
2022/04/23 02:02:37;;;;;;;15.40;11.40;;;8.60;99.90;;;;;;5099848;28;20512;-27
2022/04/23 02:05:07;;;;;;;19.55;12.48;;;8.60;99.90;;;;;;5118100;28;20040;-27
2022/04/23 02:07:37;;;;;;;15.43;10.32;;;8.60;99.90;;;;;;5117724;28;20055;-27
2022/04/23 02:10:04;;;;;;;17.48;10.82;;;8.50;99.90;;;;;;5125602;27;20406;-27
2022/04/23 02:12:30;;;;;;;20.33;11.52;;;8.50;99.90;;;;;;5138783;27;20043;-27
2022/04/23 02:14:56;;;;;;;19.50;11.82;;;8.50;99.90;;;;;;5119812;27;20103;-26
2022/04/23 02:17:21;;;;;;;16.20;11.30;;;8.40;99.90;;;;;;5138987;27;20388;-27
2022/04/23 02:19:47;;;;;;;18.23;12.23;;;8.40;99.90;;;;;;5134784;27;20459;-27
2022/04/23 02:22:13;;;;;;;16.95;12.13;;;8.40;99.90;;;;;;5118278;28;20050;-27
2022/04/23 02:24:38;;;;;;;19.50;12.35;;;8.30;99.90;;;;;;5099412;28;20047;-27
2022/04/23 02:27:04;;;;;;;17.65;12.52;;;8.30;99.90;;;;;;5117327;28;20036;-27
2022/04/23 02:29:30;;;;;;;21.17;11.70;;;8.30;99.90;;;;;;5117311;28;20040;-27
2022/04/23 02:31:55;;;;;;;19.75;12.77;;;8.30;99.90;;;;;;5096649;28;20052;-27
2022/04/23 02:34:21;;;;;;;21.38;11.65;;;8.30;99.90;;;;;;5097735;28;20377;-27
2022/04/23 02:36:47;;;;;;;16.25;12.38;;;8.30;99.90;;;;;;5096713;28;20044;-26
2022/04/23 02:39:13;;;;;;;17.33;12.75;;;8.30;1.00;;;;;;5096782;28;20044;-27
2022/04/23 02:41:39;;;;;;;22.25;13.18;;;8.30;99.90;;;;;;5098000;28;20048;-26
2022/04/23 02:44:05;;;;;;;20.45;12.75;;;8.40;99.90;;;;;;5095507;28;20044;-27
2022/04/23 02:46:31;;;;;;;20.45;12.90;;;8.40;1.00;;;;;;5096607;28;20048;-26
2022/04/23 02:48:58;;;;;;;18.27;12.88;;;8.40;99.90;;;;;;5095934;28;20087;-27
2022/04/23 02:51:24;;;;;;;21.10;12.32;;;8.30;99.90;;;;;;5097945;28;20042;-26
2022/04/23 02:53:49;;;;;;;16.80;12.55;;;8.30;99.90;;;;;;5096467;28;20417;-27
2022/04/23 02:56:16;;;;;;;17.42;11.93;;;8.30;99.90;;;;;;5094941;28;20173;-26
2022/04/23 02:58:43;;;;;;;17.92;13.05;;;8.30;1.00;;;;;;5096386;28;20500;-26
2022/04/23 03:01:10;;;;;;;21.90;12.98;;;8.20;99.90;;;;;;5096681;28;20059;-27
2022/04/23 03:03:43;;;;;;;21.48;12.93;;;8.20;99.90;;;;;;5097476;28;20041;-27
2022/04/23 03:06:09;;;;;;;16.27;11.18;;;8.20;99.90;;;;;;5097179;28;20172;-27
2022/04/23 03:08:38;;;;;;;21.70;13.23;;;8.10;99.90;;;;;;5096763;28;20641;-27
2022/04/23 03:11:06;;;;;;;20.00;12.13;;;8.10;1.00;;;;;;5095866;28;20591;-27
2022/04/23 03:13:34;;;;;;;18.55;12.85;;;8.10;1.00;;;;;;5096129;28;20108;-27
2022/04/23 03:16:00;;;;;;;17.67;12.30;;;8.10;1.00;;;;;;5110926;28;20206;-26
2022/04/23 03:18:26;;;;;;;19.70;12.95;;;8.10;1.00;;;;;;5115733;28;20044;-26
2022/04/23 03:20:52;;;;;;;14.93;11.88;;;8.10;1.00;;;;;;5117183;28;20043;-27
2022/04/23 03:23:19;;;;;;;18.40;12.35;;;8.00;99.90;;;;;;5114545;28;20051;-26
2022/04/23 03:25:45;;;;;;;17.70;12.38;;;8.00;99.90;;;;;;5116248;28;20050;-28
2022/04/23 03:28:13;;;;;;;17.15;12.07;;;8.00;1.00;;;;;;5116278;28;20040;-27
2022/04/23 03:30:40;;;;;;;21.77;12.23;;;8.10;99.90;;;;;;5122084;27;20070;-27
2022/04/23 03:33:06;;;;;;;15.52;12.50;;;8.00;99.90;;;;;;5118551;27;20059;-26
2022/04/23 03:35:32;;;;;;;17.98;11.73;;;8.00;99.90;;;;;;5116735;27;20065;-26
2022/04/23 03:37:58;;;;;;;22.20;12.35;;;8.00;1.00;;;;;;5118333;27;20039;-27
2022/04/23 03:40:25;;;;;;;15.65;11.32;;;7.90;99.90;;;;;;5136419;27;20047;-27
2022/04/23 03:42:50;;;;;;;20.20;12.02;;;7.80;99.90;;;;;;5136539;27;20054;-27
2022/04/23 03:45:19;;;;;;;16.42;11.95;;;7.80;99.90;;;;;;5134941;27;20035;-27
2022/04/23 03:47:48;;;;;;;17.50;12.40;;;7.80;99.90;;;;;;5118254;27;20054;-27
2022/04/23 03:50:15;;;;;;;17.40;12.23;;;8.00;1.00;;;;;;5136289;27;20523;-27
2022/04/23 03:52:41;;;;;;;15.75;11.65;;;7.80;99.90;;;;;;5118162;27;20051;-26
2022/04/23 03:55:07;;;;;;;18.73;11.98;;;7.90;99.90;;;;;;5134891;27;20041;-26
2022/04/23 03:57:43;;;;;;;19.15;11.68;;;7.80;99.90;;;;;;5135851;27;20429;-26
2022/04/23 04:00:10;;;;;;;16.20;11.75;;;7.80;99.90;;;;;;5137025;27;20069;-27
2022/04/23 04:02:36;;;;;;;17.15;12.48;;;7.70;99.90;;;;;;5117997;27;20083;-27
2022/04/23 04:05:01;;;;;;;16.88;11.73;;;7.70;99.90;;;;;;5135986;27;20640;-27
2022/04/23 04:07:27;;;;;;;14.82;11.32;;;7.60;99.90;;;;;;5134193;27;20089;-27
2022/04/23 04:09:53;;;;;;;17.73;12.25;;;7.60;99.90;;;;;;5135936;27;20495;-27
2022/04/23 04:12:19;;;;;;;17.55;12.23;;;7.60;99.90;;;;;;5135863;27;20096;-27
2022/04/23 04:14:44;;;;;;;15.07;12.80;;;7.60;99.90;;;;;;5117458;27;20050;-26
2022/04/23 04:17:11;;;;;;;18.05;11.88;;;7.50;99.90;;;;;;5134226;27;20104;-27
2022/04/23 04:19:38;;;;;;;11.85;10.13;;;7.60;99.90;;;;;;5135753;27;20043;-27
2022/04/23 04:22:06;;;;;;;15.63;12.32;;;7.70;99.90;;;;;;5117374;27;20061;-27
2022/04/23 04:24:33;;;;;;;14.57;11.98;;;7.60;99.90;;;;;;5117514;27;20533;-26
2022/04/23 04:27:00;;;;;;;15.77;12.63;;;7.60;99.90;;;;;;5130381;27;20039;-27
2022/04/23 04:29:26;;;;;;;15.52;11.57;;;7.80;99.90;;;;;;5097112;28;20052;-27
2022/04/23 04:31:52;;;;;;;18.00;11.50;;;7.70;99.90;;;;;;5096446;28;20140;-27
2022/04/23 04:34:32;;;;;;;16.85;10.98;;;7.70;99.90;;;;;;5097002;28;20095;-27
2022/04/23 04:37:09;;;;;;;15.27;11.90;;;7.60;99.90;;;;;;5115637;27;20079;-27
2022/04/23 04:39:40;;;;;;;16.63;12.30;;;7.70;99.90;;;;;;5114791;28;20039;-27
2022/04/23 04:42:07;;;;;;;18.15;11.45;;;7.80;99.90;;;;;;5114787;28;20071;-26
2022/04/23 04:44:34;;;;;;;14.88;12.23;;;7.70;99.90;;;;;;5114745;28;20054;-27
2022/04/23 04:46:59;;;;;;;14.57;11.93;;;7.70;99.90;;;;;;5115268;28;20035;-27
2022/04/23 04:49:25;;;;;;;15.68;11.45;;;7.70;99.90;;;;;;5115670;27;20366;-27
2022/04/23 04:51:52;;;;;;;15.98;12.20;;;8.00;99.90;;;;;;5114307;28;20497;-26
2022/04/23 04:54:19;;;;;;;14.13;11.52;;;7.90;99.90;;;;;;5114262;28;20408;-26
2022/04/23 04:56:45;;;;;;;18.33;12.70;;;7.90;99.90;;;;;;5114736;28;20050;-27
2022/04/23 04:59:11;;;;;;;15.70;11.65;;;8.20;99.90;;;;;;5124349;27;20039;-27
2022/04/23 05:01:37;;;;;;;18.30;12.48;;;8.00;99.90;;;;;;5117191;27;20100;-26
2022/04/23 05:04:04;;;;;;;15.23;12.05;;;8.00;99.90;;;;;;5135588;27;20086;-26
2022/04/23 05:06:29;;;;;;;16.17;12.00;;;8.00;99.90;;;;;;5116806;27;20393;-26
2022/04/23 05:08:55;;;;;;;17.48;13.00;;;8.30;99.90;;;;;;5107945;28;20044;-26
2022/04/23 05:11:21;;;;;;;15.25;11.98;;;8.10;99.90;;;;;;5114288;28;20122;-26
2022/04/23 05:13:47;;;;;;;15.05;10.82;;;8.00;99.90;;;;;;5113332;28;20504;-27
2022/04/23 05:16:13;;;;;;;16.52;11.95;;;8.20;99.90;;;;;;5114166;28;20040;-26
2022/04/23 05:18:39;;;;;;;17.38;12.23;;;8.20;99.90;;;;;;5117882;28;20043;-26
2022/04/23 05:21:05;;;;;;;19.33;13.00;;;8.10;99.90;;;;;;5135272;27;20376;-27
2022/04/23 05:23:31;;;;;;;15.25;10.93;;;8.10;99.90;;;;;;5134403;27;20511;-27
2022/04/23 05:25:57;;;;;;;15.35;10.88;;;8.10;99.90;;;;;;5117175;27;20050;-27
2022/04/23 05:28:23;;;;;;;13.43;10.73;;;8.40;99.90;;;;;;5134631;28;20496;-26
2022/04/23 05:30:49;;;;;;;14.70;10.82;;;8.30;99.90;;;;;;5132338;28;20151;-27
2022/04/23 05:33:15;;;;;;;13.38;11.00;;;8.50;99.90;;;;;;5116549;28;20058;-27
2022/04/23 05:35:41;;;;;;;13.68;11.35;;;8.50;99.90;;;;;;5134479;28;20035;-27
2022/04/23 05:38:07;;;;;;;14.32;10.88;;;8.40;99.90;;;;;;5134481;28;20134;-27
2022/04/23 05:40:33;;;;;;;15.52;10.70;;;8.40;91.50;;;;;;5124040;28;20118;-27
2022/04/23 05:42:58;;;;;;;15.93;11.05;;;8.50;99.00;;;;;;5096583;28;20130;-27
2022/04/23 05:45:25;;;;;;;12.68;11.32;;;9.00;99.90;;;;;;5113937;28;20035;-27
2022/04/23 05:47:52;;;;;;;12.43;9.85;;;8.60;99.80;;;;;;5113925;28;20040;-27
2022/04/23 05:50:17;;;;;;;13.02;10.40;;;8.80;88.50;;;;;;5114661;28;20394;-27
2022/04/23 05:52:43;;;;;;;11.85;9.95;;;8.80;49.30;;;;;;5113808;28;20054;-27
2022/04/23 05:55:09;;;;;;;12.57;9.98;;;8.80;23.70;;;;;;5113439;28;20047;-27
2022/04/23 05:57:35;;;;;;;16.77;10.70;;;9.10;1.00;;;;;;5095624;28;20043;-27
2022/04/23 06:00:03;;;;;;;12.52;9.65;;;9.00;1.00;;;;;;5113762;28;20118;-27
2022/04/23 06:02:28;;;;;;;11.38;9.35;;;9.10;1.00;;;;;;5127394;28;20043;-27
2022/04/23 06:04:54;;;;;;;12.18;9.02;;;9.20;1.00;;;;;;5098908;28;20108;-27
2022/04/23 06:07:20;;;;;;;11.50;8.82;;;9.30;1.00;;;;;;5116132;28;20047;-27
2022/04/23 06:09:46;;;;;;;13.43;9.13;;;9.50;1.00;;;;;;5115640;28;20039;-27
2022/04/23 06:12:12;;;;;;;9.65;8.32;;;9.60;1.00;;;;;;5097373;28;20043;-27
2022/04/23 06:14:38;;;;;;;11.63;9.25;;;9.50;1.00;;;;;;5116469;28;20046;-27
2022/04/23 06:17:08;;;;;;;11.43;8.80;;;9.70;1.00;;;;;;5134958;28;20443;-27
2022/04/23 06:19:34;;;;;;;10.60;8.25;;;9.80;1.00;;;;;;5134097;28;20051;-27
2022/04/23 06:22:00;;;;;;;9.98;8.65;;;9.80;99.90;;;;;;5114117;28;20050;-27
2022/04/23 06:24:26;;;;;;;10.73;8.65;;;10.10;99.90;;;;;;5116794;27;20047;-27
2022/04/23 06:26:52;;;;;;;12.70;9.60;;;9.90;99.90;;;;;;5119935;27;20047;-27
2022/04/23 06:29:17;;;;;;;10.73;8.52;;;10.00;99.90;;;;;;5119719;27;20137;-27
2022/04/23 06:31:44;;;;;;;12.40;8.00;;;10.20;99.90;;;;;;5092725;28;20123;-27
2022/04/23 06:34:10;;;;;;;13.05;9.20;;;10.30;99.90;;;;;;5131943;27;20051;-27
2022/04/23 06:36:36;;;;;;;10.30;8.75;;;10.20;99.90;;;;;;5136594;27;20046;-26
2022/04/23 06:39:03;;;;;;;11.25;9.15;;;10.20;99.90;;;;;;5117504;27;20158;-27
2022/04/23 06:41:29;;;;;;;11.20;8.68;;;10.50;99.90;;;;;;5118759;27;20126;-27
2022/04/23 06:43:54;;;;;;;10.30;8.32;;;10.40;99.90;;;;;;5137015;27;20126;-27
2022/04/23 06:46:20;;;;;;;10.93;8.38;;;10.50;99.90;;;;;;5118030;27;20035;-27
2022/04/23 06:48:46;;;;;;;11.38;8.38;;;10.50;99.90;;;;;;5100430;27;20055;-27
2022/04/23 06:51:12;;;;;;;12.25;8.50;;;10.90;99.90;;;;;;5137725;27;20079;-27
2022/04/23 06:53:38;;;;;;;12.30;8.10;;;10.70;99.90;;;;;;5137467;27;20044;-27
2022/04/23 06:56:04;;;;;;;13.13;8.65;;;10.80;99.90;;;;;;5137226;27;20036;-27
2022/04/23 06:58:30;;;;;;;11.40;8.88;;;10.90;99.90;;;;;;5137278;27;20047;-27
2022/04/23 07:00:56;;;;;;;10.80;8.90;;;11.00;99.90;;;;;;5137317;27;20103;-27
2022/04/23 07:03:22;;;;;;;10.63;8.73;;;11.00;99.90;;;;;;5116913;27;20044;-27
2022/04/23 07:05:48;;;;;;;11.40;9.00;;;11.10;99.90;;;;;;5116513;28;20036;-27
2022/04/23 07:08:13;;;;;;;10.45;8.35;;;11.20;99.90;;;;;;5117319;28;20043;-27
2022/04/23 07:10:39;;;;;;;15.10;8.85;;;11.20;91.30;;;;;;5098213;28;20404;-27
2022/04/23 07:13:05;;;;;;;10.02;8.27;;;11.30;95.50;;;;;;5116423;28;20043;-27
2022/04/23 07:15:31;;;;;;;11.10;9.02;;;11.40;44.70;;;;;;5116681;28;20123;-27
2022/04/23 07:17:57;;;;;;;11.77;8.55;;;11.50;25.20;;;;;;5116590;28;20047;-27
2022/04/23 07:20:23;;;;;;;10.70;8.30;;;11.50;13.60;;;;;;5116346;28;20100;-28
2022/04/23 07:25:36;;;;;;;9.85;8.30;;;11.70;1.00;;;;;;5119416;27;20043;-27
2022/04/23 07:28:02;;;;;;;10.82;8.18;;;11.80;1.00;;;;;;5136733;27;20043;-27
2022/04/23 07:30:29;;;;;;;9.55;7.95;;;11.90;1.00;;;;;;5136580;27;20481;-27
2022/04/23 07:32:56;;;;;;;8.55;7.65;;;12.10;1.00;;;;;;5137271;27;20043;-27
2022/04/23 07:38:14;;;;;;;9.93;8.55;;;12.10;1.00;;;;;;5115277;28;20497;-28
2022/04/23 07:40:41;;;;;;;10.55;7.90;;;12.20;1.00;;;;;;5115898;28;20047;-27
2022/04/23 07:43:12;;;;;;;9.88;8.13;;;12.20;1.00;;;;;;5134583;27;20040;-27
2022/04/23 07:45:38;;;;;;;9.23;7.93;;;12.40;1.00;;;;;;5137040;27;20043;-27
2022/04/23 07:48:05;;;;;;;8.88;7.75;;;12.50;1.00;;;;;;5129416;27;20109;-27
2022/04/23 07:50:35;;;;;;;11.52;7.53;;;12.50;1.00;;;;;;5125401;27;20046;-27
2022/04/23 07:53:02;;;;;;;9.07;7.03;;;12.50;1.00;;;;;;5121674;27;20493;-27
2022/04/23 07:55:38;;;;;;;11.15;8.15;;;12.50;1.00;;;;;;5118955;27;20035;-30
2022/04/23 07:58:06;;;;;;;12.18;7.85;;;12.60;1.00;;;;;;5135909;27;20051;-28
2022/04/23 08:00:38;;;;;;;8.45;7.30;;;12.70;1.00;;;;;;5129653;27;20485;-27
2022/04/23 08:03:05;;;;;;;10.77;8.07;;;12.90;1.00;;;;;;5106102;28;20512;-27
2022/04/23 08:05:32;;;;;;;10.43;8.18;;;12.80;1.00;;;;;;5130749;27;20104;-27
2022/04/23 08:08:01;;;;;;;10.57;7.65;;;12.90;99.90;;;;;;5120697;27;20052;-27
2022/04/23 08:10:27;;;;;;;9.70;7.78;;;12.90;1.00;;;;;;5115058;28;20457;-27
2022/04/23 08:12:54;;;;;;;11.02;7.57;;;12.90;99.90;;;;;;5130756;27;20047;-27
2022/04/23 08:15:20;;;;;;;10.82;8.32;;;13.00;99.90;;;;;;5118263;27;20050;-28
2022/04/23 08:17:47;;;;;;;9.63;7.95;;;13.00;99.90;;;;;;5132990;27;20094;-27
2022/04/23 08:20:13;;;;;;;8.43;7.43;;;13.10;99.90;;;;;;5130798;27;20058;-27
2022/04/23 08:22:39;;;;;;;11.25;7.65;;;13.20;99.90;;;;;;5117829;27;20512;-27
2022/04/23 08:25:05;;;;;;;11.15;8.25;;;13.20;99.90;;;;;;5132727;27;20047;-27
2022/04/23 08:27:45;;;;;;;8.07;7.03;;;13.40;99.90;;;;;;5129346;27;20045;-27
2022/04/23 08:32:55;;;;;;;9.18;7.55;;;13.40;99.90;;;;;;5101664;27;20058;-27
2022/04/23 08:35:20;;;;;;;9.77;7.32;;;13.70;99.90;;;;;;5105883;28;20043;-29
2022/04/23 08:37:46;;;;;;;9.55;8.15;;;13.60;99.90;;;;;;5119269;27;20039;-28
2022/04/23 08:40:12;;;;;;;9.48;7.85;;;13.70;99.90;;;;;;5098607;28;20108;-28
2022/04/23 08:42:39;;;;;;;9.27;8.32;;;13.80;99.90;;;;;;5118468;27;20118;-27
2022/04/23 08:45:07;;;;;;;9.23;7.18;;;13.80;99.90;;;;;;5116151;27;20404;-27
2022/04/23 08:47:36;;;;;;;8.38;7.50;;;13.90;99.90;;;;;;5123892;27;20050;-27
2022/04/23 08:50:05;;;;;;;11.98;8.35;;;13.90;99.90;;;;;;5133579;27;20054;-27
2022/04/23 08:52:33;;;;;;;11.13;7.80;;;14.00;99.90;;;;;;5130442;27;20104;-26
2022/04/23 08:55:05;;;;;;;9.05;7.90;;;14.10;99.90;;;;;;5079797;28;20047;-27
2022/04/23 08:57:32;;;;;;;10.25;7.82;;;14.20;99.90;;;;;;5096548;28;20100;-27
2022/04/23 08:59:59;;;;;;;13.57;8.45;;;14.30;99.90;;;;;;5134558;27;20043;-27
2022/04/23 09:02:27;;;;;;;15.15;9.43;;;14.40;99.90;;;;;;5121724;27;20082;-27
2022/04/23 09:04:56;;;;;;;8.02;7.10;;;14.90;99.90;;;;;;5135067;27;20050;-27
2022/04/23 09:07:25;;;;;;;9.35;7.55;;;16.00;99.90;;;;;;5135779;27;20096;-27
2022/04/23 09:09:52;;;;;;;11.48;8.68;;;16.80;33.60;;;;;;5111208;27;20043;-27
2022/04/23 09:12:20;;;;;;;9.23;7.72;;;16.80;46.10;;;;;;5114631;27;20040;-27
2022/04/23 09:14:46;;;;;;;9.32;7.63;;;17.10;39.40;;;;;;5115167;28;20120;-27
2022/04/23 09:25:41;;;;;;;9.90;7.35;;;17.90;1.00;;;;;;5115526;27;20564;-27
2022/04/23 09:28:29;;;;;;;7.82;6.85;;;17.90;1.00;;;;;;5114180;28;20126;-27
2022/04/23 09:30:56;;;;;;;9.88;7.20;;;17.90;1.00;;;;;;5078440;28;20055;-27
2022/04/23 09:33:45;;;;;;;7.40;6.50;;;17.80;1.00;;;;;;5105682;28;20059;-27
2022/04/23 09:36:12;;;;;;;10.27;6.68;;;17.70;1.00;;;;;;5107106;28;20042;-27
2022/04/23 09:38:39;;;;;;;7.32;6.60;;;18.00;1.00;;;;;;5093608;28;20058;-27
2022/04/23 09:41:20;;;;;;;8.85;7.72;;;18.00;1.00;;;;;;5096426;28;20627;-28
2022/04/23 09:44:09;;;;;;;9.40;7.20;;;18.20;1.00;;;;;;5091626;28;20071;-29
2022/04/23 09:46:45;;;;;;;8.75;7.70;;;18.30;99.90;;;;;;5097238;28;20039;-28
2022/04/23 09:49:12;;;;;;;9.68;6.95;;;18.10;99.90;;;;;;5105577;28;20051;-28
2022/04/23 09:51:38;;;;;;;8.38;6.85;;;18.10;1.00;;;;;;5106637;28;20163;-28
2022/04/23 09:54:04;;;;;;;7.45;6.70;;;18.10;1.00;;;;;;5093204;28;20047;-27
2022/04/23 09:56:29;;;;;;;8.55;7.65;;;18.20;99.90;;;;;;5095359;28;20040;-28
2022/04/23 09:58:57;;;;;;;8.07;6.80;;;18.30;99.90;;;;;;5093523;28;20087;-28
2022/04/23 10:01:23;;;;;;;8.25;7.25;;;18.70;99.90;;;;;;5096508;28;20048;-27
2022/04/23 10:03:51;;;;;;;8.38;6.65;;;18.70;99.90;;;;;;5097549;28;20101;-28
2022/04/23 10:06:24;;;;;;;9.15;7.78;;;18.90;99.90;;;;;;5111392;28;20043;-28
2022/04/23 10:08:55;;;;;;;9.48;8.48;;;18.90;99.90;;;;;;5108010;28;20055;-28
2022/04/23 10:11:30;;;;;;;8.40;7.40;;;19.00;99.90;;;;;;5103887;28;20401;-27
2022/04/23 10:14:03;;;;;;;8.80;7.38;;;18.90;99.90;;;;;;5097328;28;20044;-28
2022/04/23 10:16:30;;;;;;;9.20;7.20;;;18.70;99.90;;;;;;5097831;28;20083;-28
2022/04/23 10:18:57;;;;;;;11.15;8.07;;;19.10;99.90;;;;;;5097766;28;20451;-29
2022/04/23 10:21:39;;;;;;;10.48;7.10;;;19.10;99.90;;;;;;5098246;28;20112;-27
2022/04/23 10:24:19;;;;;;;7.70;6.88;;;19.40;99.90;;;;;;5101071;28;20108;-28
2022/04/23 10:26:55;;;;;;;7.75;7.05;;;19.90;99.90;;;;;;5112465;28;20051;-28
2022/04/23 10:29:27;;;;;;;6.60;5.18;;;19.80;99.90;;;;;;5096850;28;20079;-28
2022/04/23 10:32:10;;;;;;;7.07;5.82;;;19.60;99.90;;;;;;5113571;28;20060;-28
2022/04/23 10:34:37;;;;;;;7.85;6.25;;;19.30;99.90;;;;;;5117364;28;20051;-28
2022/04/23 10:37:29;;;;;;;7.40;6.32;;;19.00;99.90;;;;;;5106242;28;20450;-28
2022/04/23 10:39:55;;;;;;;7.45;5.95;;;19.20;99.90;;;;;;5117447;28;20043;-28
2022/04/23 10:42:25;;;;;;;6.88;6.13;;;19.40;99.90;;;;;;5111690;27;20165;-29
2022/04/23 10:44:55;;;;;;;8.40;6.53;;;19.80;99.90;;;;;;5117124;27;20047;-29
2022/04/23 10:47:33;;;;;;;7.47;6.30;;;19.70;99.90;;;;;;5117052;28;20047;-28
2022/04/23 10:50:23;;;;;;;7.40;6.22;;;19.60;99.90;;;;;;5107308;27;20500;-28
2022/04/23 10:52:51;;;;;;;7.13;5.55;;;19.70;99.90;;;;;;5135776;27;20058;-28
2022/04/23 10:55:17;;;;;;;6.88;5.78;;;19.60;99.90;;;;;;5111044;27;20044;-27
2022/04/23 10:57:53;;;;;;;7.93;5.88;;;19.40;99.90;;;;;;5116932;28;20069;-28
2022/04/23 11:00:21;;;;;;;9.02;5.45;;;19.60;99.90;;;;;;5116980;27;20048;-28
2022/04/23 11:02:48;;;;;;;8.45;5.38;;;19.70;99.90;;;;;;5102918;27;20039;-28
2022/04/23 11:14:41;;;;;;;6.43;4.95;;;20.30;99.90;;;;;;5127918;27;20126;-29
2022/04/23 11:17:14;;;;;;;6.63;5.97;;;20.30;99.90;;;;;;5115943;28;20047;-28
2022/04/23 11:19:41;;;;;;;5.93;5.18;;;20.20;99.90;;;;;;5117236;27;20417;-28
2022/04/23 11:22:09;;;;;;;5.85;4.82;;;20.30;99.90;;;;;;5117245;28;20389;-28
2022/04/23 11:24:35;;;;;;;7.60;5.07;;;20.40;99.90;;;;;;5117516;27;20136;-28
2022/04/23 11:27:01;;;;;;;8.93;4.90;;;20.70;99.90;;;;;;5112317;27;20484;-27
2022/04/23 11:29:27;;;;;;;6.38;4.93;;;20.50;99.90;;;;;;5117416;27;20050;-28
2022/04/23 11:31:57;;;;;;;5.93;5.10;;;20.70;99.90;;;;;;5136355;27;20055;-28
2022/04/23 11:34:23;;;;;;;6.78;5.30;;;20.70;99.90;;;;;;5109708;27;20039;-28
2022/04/23 11:36:49;;;;;;;5.85;4.90;;;20.70;99.90;;;;;;5116425;27;20050;-27
2022/04/23 11:39:15;;;;;;;6.85;4.68;;;20.70;99.90;;;;;;5115816;27;20047;-28
2022/04/23 11:41:43;;;;;;;5.88;4.55;;;20.70;99.90;;;;;;5135495;27;20080;-29
2022/04/23 11:44:17;;;;;;;5.10;4.60;;;20.60;99.90;;;;;;5130224;27;20043;-28
2022/04/23 11:46:46;;;;;;;5.68;4.45;;;20.80;99.90;;;;;;5119212;27;20032;-28
2022/04/23 11:49:25;;;;;;;5.78;4.22;;;20.80;99.90;;;;;;5114283;27;20096;-28
2022/04/23 11:51:57;;;;;;;7.57;4.47;;;20.70;99.90;;;;;;5120389;27;20046;-28
2022/04/23 11:54:43;;;;;;;4.88;3.67;;;20.80;99.90;;;;;;5124408;27;20058;-28
2022/04/23 11:57:12;;;;;;;4.80;4.18;;;20.70;99.90;;;;;;5066942;28;20058;-28
2022/04/23 11:59:39;;;;;;;6.32;4.38;;;20.80;99.90;;;;;;5116228;28;20048;-28
2022/04/23 12:02:08;;;;;;;4.78;3.88;;;20.90;99.90;;;;;;5097615;28;20130;-28
2022/04/23 12:04:44;;;;;;;5.15;4.55;;;20.80;99.90;;;;;;5117212;27;20047;-28
2022/04/23 12:07:10;;;;;;;4.38;3.90;;;21.00;99.90;;;;;;5121610;27;20054;-28
2022/04/23 12:09:47;;;;;;;5.93;4.07;;;21.10;99.90;;;;;;5115462;27;20381;-28
2022/04/23 12:12:20;;;;;;;5.22;4.07;;;21.00;99.90;;;;;;5121378;27;20400;-28
2022/04/23 12:14:48;;;;;;;5.75;4.30;;;21.00;99.90;;;;;;5135148;27;20074;-28
2022/04/23 12:17:25;;;;;;;5.05;4.00;;;21.00;99.90;;;;;;5125714;27;20043;-28
2022/04/23 12:19:58;;;;;;;6.10;3.92;;;20.90;99.90;;;;;;5130273;27;20054;-28
2022/04/23 12:22:31;;;;;;;7.72;4.03;;;21.10;99.90;;;;;;5118527;27;20047;-28
2022/04/23 12:25:09;;;;;;;5.80;4.63;;;21.20;99.90;;;;;;5135136;27;20051;-28
2022/04/23 12:27:56;;;;;;;5.10;4.10;;;21.20;99.90;;;;;;5122117;27;20043;-28
2022/04/23 12:42:00;;;;;;;7.55;3.75;;;21.50;99.90;;;;;;5114804;28;20063;-28
2022/04/23 12:44:35;;;;;;;4.15;3.75;;;21.30;99.90;;;;;;5097799;28;20481;-28
2022/04/23 12:47:06;;;;;;;7.85;3.38;;;21.40;99.90;;;;;;5115003;28;20508;-29
2022/04/23 12:49:54;;;;;;;7.22;4.13;;;21.50;99.90;;;;;;5126368;27;20062;-28
2022/04/23 12:52:27;;;;;;;4.20;3.78;;;21.60;99.90;;;;;;5135226;27;20579;-28
2022/04/23 12:55:18;;;;;;;4.32;3.55;;;21.60;99.90;;;;;;5133486;27;20103;-28
2022/04/23 12:58:05;;;;;;;6.30;3.50;;;21.40;99.90;;;;;;5117061;27;20043;-28
2022/04/23 13:00:38;;;;;;;5.80;3.30;;;21.20;99.90;;;;;;5129909;27;20158;-28
2022/04/23 13:03:40;;;;;;;6.40;4.18;;;21.30;99.90;;;;;;5134853;27;20050;-29
2022/04/23 13:08:54;;;;;;;5.45;3.92;;;21.40;99.90;;;;;;5107997;27;20092;-28
2022/04/23 13:08:56;;;;;;;3.88;3.20;;;21.60;99.90;;;;;;5127100;27;20057;-28
2022/04/23 13:11:30;;;;;;;4.22;3.65;;;21.50;99.90;;;;;;5134743;27;20130;-28
2022/04/23 13:14:00;;;;;;;3.50;3.15;;;21.50;99.90;;;;;;5110711;28;20052;-28
2022/04/23 13:16:28;;;;;;;4.25;3.70;;;21.50;99.90;;;;;;5115818;27;20118;-28
2022/04/23 13:18:59;;;;;;;4.28;3.85;;;21.40;99.90;;;;;;5119691;27;20040;-28
2022/04/23 13:21:32;;;;;;;3.70;3.30;;;21.20;99.90;;;;;;5121616;27;20493;-28
2022/04/23 13:23:59;;;;;;;2.90;2.60;;;21.00;99.90;;;;;;5116698;27;20043;-28
2022/04/23 13:26:30;;;;;;;7.32;3.15;;;20.90;99.90;;;;;;5134760;27;20066;-30
2022/04/23 13:28:57;;;;;;;4.88;3.40;;;21.00;99.90;;;;;;5132573;27;20492;-28
2022/04/23 13:31:23;;;;;;;5.25;3.70;;;21.00;99.90;;;;;;5121345;28;20420;-28